Time;durP1;ratioP1;P1;durP2;ratioP2;P2;SDS_P1;SDS_P2;PMS_P1;PMS_P2;Temp;Humidity;BMP_temperature;BMP_pressure;BME280_temperature;BME280_humidity;BME280_pressure;Samples;Min_cycle;Max_cycle;Signal;HPM_P1;HPM_P2
2021/09/21 00:01:54;;;;;;;10.30;2.47;;;;;;;9.87;61.19;101436.67;1708031;82;26112;-63
2021/09/21 00:04:26;;;;;;;3.50;2.25;;;;;;;9.83;61.41;101439.70;1708107;82;25757;-63
2021/09/21 00:06:50;;;;;;;5.70;2.85;;;;;;;9.68;61.41;101437.70;1708334;82;27521;-63
2021/09/21 00:09:17;;;;;;;6.75;2.83;;;;;;;9.58;62.05;101454.13;1708042;84;25810;-63
2021/09/21 00:11:43;;;;;;;6.22;2.60;;;;;;;9.46;62.46;101450.52;1710183;83;25856;-63
2021/09/21 00:14:10;;;;;;;3.00;2.47;;;;;;;9.42;62.64;101455.22;1720937;83;26812;-63
2021/09/21 00:16:38;;;;;;;3.58;2.65;;;;;;;9.41;62.73;101456.22;1721007;83;25817;-63
2021/09/21 00:19:05;;;;;;;9.53;2.60;;;;;;;9.39;62.56;101450.09;1721062;83;27480;-63
2021/09/21 00:21:32;;;;;;;4.62;2.75;;;;;;;9.39;62.79;101453.63;1720942;83;25757;-63
2021/09/21 00:23:59;;;;;;;5.45;2.67;;;;;;;9.35;62.73;101460.20;1726306;81;25828;-63
2021/09/21 00:26:26;;;;;;;8.03;2.72;;;;;;;9.28;63.13;101462.94;1737154;81;26115;-63
2021/09/21 00:28:53;;;;;;;3.87;2.20;;;;;;;9.26;63.10;101462.21;1714468;82;25751;-63
2021/09/21 00:31:21;;;;;;;6.95;2.45;;;;;;;9.24;63.41;101464.14;1735624;82;27496;-63
2021/09/21 00:33:51;;;;;;;8.05;2.62;;;;;;;9.22;63.53;101462.92;1735707;82;25823;-63
2021/09/21 00:36:18;;;;;;;8.30;2.70;;;;;;;9.21;63.54;101467.03;1735502;82;25632;-63
2021/09/21 00:38:46;;;;;;;8.43;2.52;;;;;;;9.18;63.81;101480.20;1736393;82;26037;-63
2021/09/21 00:41:14;;;;;;;3.58;2.58;;;;;;;9.15;63.56;101466.98;1735713;82;25908;-62
2021/09/21 00:43:41;;;;;;;7.20;2.65;;;;;;;9.21;63.63;101465.23;1744112;82;27476;-63
2021/09/21 00:46:08;;;;;;;5.85;2.92;;;;;;;9.27;63.54;101457.69;1743825;82;25727;-63
2021/09/21 00:48:36;;;;;;;5.53;3.00;;;;;;;9.30;63.52;101463.69;1740548;82;25735;-63
2021/09/21 00:51:03;;;;;;;7.83;2.62;;;;;;;9.22;63.70;101462.92;1732926;82;26800;-63
2021/09/21 00:53:31;;;;;;;9.90;2.65;;;;;;;9.13;64.03;101468.07;1736792;82;26427;-63
2021/09/21 00:55:58;;;;;;;6.08;2.80;;;;;;;9.06;64.07;101465.84;1735708;82;27483;-63
2021/09/21 00:58:25;;;;;;;4.87;2.65;;;;;;;9.06;63.95;101471.20;1735498;82;25856;-63
2021/09/21 01:00:52;;;;;;;4.78;2.45;;;;;;;9.06;64.29;101471.20;1715849;82;25799;-63
2021/09/21 01:03:19;;;;;;;4.60;2.70;;;;;;;9.00;64.27;101470.30;1740133;82;26116;-62
2021/09/21 01:05:45;;;;;;;6.45;2.83;;;;;;;8.95;64.62;101474.28;1743036;80;25803;-63
2021/09/21 01:08:12;;;;;;;4.60;3.05;;;;;;;8.94;64.30;101468.03;1744139;80;26864;-62
2021/09/21 01:10:40;;;;;;;5.53;3.00;;;;;;;9.00;64.15;101466.28;1744052;82;25672;-63
2021/09/21 01:13:07;;;;;;;5.12;3.00;;;;;;;9.10;64.01;101468.31;1715629;82;25740;-62
2021/09/21 01:15:33;;;;;;;4.47;3.00;;;;;;;9.17;63.90;101472.27;1693437;82;26756;-62
2021/09/21 01:18:00;;;;;;;9.28;3.75;;;;;;;9.19;63.78;101471.18;1678260;85;25621;-63
2021/09/21 01:20:28;;;;;;;4.90;3.45;;;;;;;9.18;63.61;101478.86;1682521;84;27498;-63
2021/09/21 01:22:55;;;;;;;10.53;3.42;;;;;;;9.15;63.88;101480.41;1702247;84;25794;-62
2021/09/21 01:25:23;;;;;;;9.55;3.37;;;;;;;9.17;63.74;101480.32;1704967;83;25768;-62
2021/09/21 01:27:50;;;;;;;15.20;2.95;;;;;;;9.20;64.03;101480.08;1704737;84;26115;-62
2021/09/21 01:30:18;;;;;;;6.60;4.10;;;;;;;9.19;63.90;101483.73;1704618;84;26491;-62
2021/09/21 01:32:45;;;;;;;8.98;3.17;;;;;;;9.19;63.92;101488.63;1704815;83;27433;-63
2021/09/21 01:35:15;;;;;;;13.40;3.47;;;;;;;9.15;64.16;101490.30;1704337;84;25717;-63
2021/09/21 01:37:51;;;;;;;10.20;3.33;;;;;;;9.18;64.12;101489.59;1704638;83;26286;-62
2021/09/21 01:40:15;;;;;;;6.35;2.80;;;;;;;9.22;64.08;101488.89;1704357;83;26079;-63
2021/09/21 01:42:48;;;;;;;7.05;3.05;;;;;;;9.23;63.93;101482.06;1703287;83;25885;-63
2021/09/21 01:45:17;;;;;;;5.03;2.92;;;;;;;9.25;63.89;101491.37;1702996;83;28186;-63
2021/09/21 01:47:47;;;;;;;4.75;2.92;;;;;;;9.21;63.92;101495.22;1707808;83;25744;-62
2021/09/21 02:00:23;;;;;;;11.68;3.65;;;;;;;8.99;64.55;101494.55;1699497;83;25748;-62
2021/09/21 02:02:50;;;;;;;6.72;3.58;;;;;;;8.95;64.55;101495.25;1692469;82;25789;-62
2021/09/21 02:05:17;;;;;;;4.42;3.08;;;;;;;8.94;64.52;101498.89;1686309;83;26144;-62
2021/09/21 02:07:44;;;;;;;9.10;3.77;;;;;;;8.92;64.71;101496.80;1680047;85;25454;-62
2021/09/21 02:10:11;;;;;;;10.13;3.65;;;;;;;8.89;64.81;101501.05;1680950;84;28183;-62
2021/09/21 02:12:38;;;;;;;8.33;3.25;;;;;;;8.84;65.16;101498.69;1683467;83;25922;-62
2021/09/21 02:15:06;;;;;;;6.67;2.87;;;;;;;8.82;65.33;101492.56;1683794;83;25668;-62
2021/09/21 02:17:33;;;;;;;11.95;3.50;;;;;;;8.82;65.30;101488.55;1709303;82;26057;-62
2021/09/21 02:20:00;;;;;;;7.08;3.87;;;;;;;8.83;65.20;101484.05;1737546;80;26453;-62
2021/09/21 02:22:27;;;;;;;7.50;2.95;;;;;;;8.90;65.29;101485.34;1725211;80;27414;-62
2021/09/21 02:24:56;;;;;;;8.38;3.75;;;;;;;9.00;65.27;101486.41;1733320;80;25771;-62
2021/09/21 02:27:25;;;;;;;6.75;2.87;;;;;;;9.09;65.10;101484.87;1734172;82;25739;-62
2021/09/21 02:29:52;;;;;;;9.95;3.27;;;;;;;9.10;64.87;101490.63;1732027;82;26774;-62
2021/09/21 02:32:19;;;;;;;6.90;2.50;;;;;;;9.13;64.97;101491.77;1726115;82;25835;-62
2021/09/21 02:34:46;;;;;;;8.55;3.85;;;;;;;9.15;64.88;101480.91;1726314;82;27460;-62
2021/09/21 02:37:16;;;;;;;7.40;3.40;;;;;;;9.15;64.87;101488.46;1726027;83;25851;-62
2021/09/21 02:39:43;;;;;;;6.87;3.10;;;;;;;9.19;64.84;101499.84;1726244;82;25874;-62
2021/09/21 02:42:11;;;;;;;4.80;3.12;;;;;;;9.18;65.01;101506.20;1723402;82;26075;-62
2021/09/21 02:44:38;;;;;;;9.03;3.62;;;;;;;9.06;65.46;101508.78;1723170;82;25748;-62
2021/09/21 02:47:06;;;;;;;10.95;5.35;;;;;;;8.99;65.50;101509.31;1761527;80;27482;-62
2021/09/21 02:49:33;;;;;;;9.35;4.85;;;;;;;8.92;65.74;101515.58;1742502;81;25764;-63
2021/09/21 02:52:00;;;;;;;12.68;4.78;;;;;;;8.87;66.02;101510.56;1729296;80;25892;-62
2021/09/21 02:54:27;;;;;;;8.88;3.72;;;;;;;8.82;66.39;101510.01;1763720;81;26067;-63
2021/09/21 02:56:54;;;;;;;10.28;2.35;;;;;;;8.74;66.16;101510.52;1749011;81;25889;-63
2021/09/21 02:59:22;;;;;;;4.10;2.70;;;;;;;8.71;66.11;101510.76;1726819;83;27520;-63
2021/09/21 03:02:06;;;;;;;;;;;;;;;;;;;;;
2021/09/21 03:04:34;;;;;;;2.27;1.65;;;;;;;8.77;66.09;101520.21;1718511;81;25851;-64
2021/09/21 03:17:26;;;;;;;3.83;1.90;;;;;;;8.95;64.85;101534.16;1723204;83;25819;-62
2021/09/21 03:19:57;;;;;;;3.12;2.10;;;;;;;8.96;64.46;101537.22;1734051;82;26810;-62
2021/09/21 03:22:24;;;;;;;3.52;2.15;;;;;;;8.90;64.29;101536.31;1736888;80;25771;-62
2021/09/21 03:24:52;;;;;;;8.60;2.92;;;;;;;8.83;64.53;101542.58;1712369;82;27555;-62
2021/09/21 03:27:20;;;;;;;5.90;2.90;;;;;;;8.79;64.42;101543.74;1709903;83;25749;-63
2021/09/21 03:29:48;;;;;;;7.30;2.33;;;;;;;8.78;64.56;101542.05;1714000;82;25796;-62
2021/09/21 03:32:15;;;;;;;5.17;2.35;;;;;;;8.77;64.73;101544.36;1714825;82;26084;-62
2021/09/21 03:34:43;;;;;;;7.65;2.70;;;;;;;8.72;64.46;101546.48;1736096;82;25745;-62
2021/09/21 03:37:11;;;;;;;4.78;3.17;;;;;;;8.68;64.54;101548.52;1722840;82;28171;-62
2021/09/21 03:39:39;;;;;;;3.22;2.45;;;;;;;8.66;64.63;101549.59;1714150;82;26481;-62
2021/09/21 03:42:06;;;;;;;6.25;2.35;;;;;;;8.61;64.84;101556.61;1737989;82;25790;-64
2021/09/21 03:44:34;;;;;;;3.77;2.20;;;;;;;8.57;64.90;101553.73;1734028;82;26093;-62
2021/09/21 03:47:02;;;;;;;2.30;1.82;;;;;;;8.59;65.17;101554.50;1717027;82;25824;-63
2021/09/21 03:49:31;;;;;;;5.30;1.80;;;;;;;8.58;64.98;101549.63;1713809;81;26934;-62
2021/09/21 03:52:03;;;;;;;5.22;2.62;;;;;;;8.57;64.94;101553.73;1732112;81;25766;-66
2021/09/21 03:54:55;;;;;;;;;;;;;;;;;;;;;
2021/09/21 03:57:12;;;;;;;9.38;1.80;;;;;;;8.56;65.20;101552.05;1714836;82;25763;-63
2021/09/21 03:59:39;;;;;;;5.08;2.20;;;;;;;8.65;65.56;101551.89;1701580;83;25752;-62
2021/09/21 04:02:06;;;;;;;5.60;2.10;;;;;;;8.72;65.16;101556.74;1714581;81;28302;-62
2021/09/21 04:04:33;;;;;;;2.55;2.00;;;;;;;8.73;64.98;101552.22;1712653;82;25790;-62
2021/09/21 04:06:59;;;;;;;5.72;1.85;;;;;;;8.77;65.15;101555.93;1734298;82;25831;-63
2021/09/21 04:09:26;;;;;;;8.53;2.08;;;;;;;8.87;64.83;101553.96;1731681;82;26730;-63
2021/09/21 04:11:53;;;;;;;4.17;2.10;;;;;;;8.95;64.67;101560.15;1728183;82;25738;-62
2021/09/21 04:14:20;;;;;;;3.25;2.35;;;;;;;8.93;64.53;101562.92;1725436;82;27540;-63
2021/09/21 04:16:47;;;;;;;5.65;2.52;;;;;;;8.97;64.61;101560.41;1735568;82;25861;-62
2021/09/21 04:19:13;;;;;;;7.35;2.40;;;;;;;8.93;64.67;101566.48;1734394;82;25818;-62
2021/09/21 04:21:40;;;;;;;7.90;3.15;;;;;;;8.87;64.68;101570.94;1734506;82;26860;-62
2021/09/21 04:24:08;;;;;;;8.28;2.27;;;;;;;8.86;64.79;101567.88;1734345;82;25738;-63
2021/09/21 04:26:35;;;;;;;6.33;2.58;;;;;;;8.90;64.95;101572.05;1734311;82;27548;-62
2021/09/21 04:29:01;;;;;;;5.28;3.15;;;;;;;8.86;65.03;101570.55;1734627;82;25755;-63
2021/09/21 04:31:28;;;;;;;4.72;2.85;;;;;;;8.88;65.10;101573.13;1734178;82;25883;-64
2021/09/21 04:33:58;;;;;;;7.40;2.67;;;;;;;8.86;65.24;101570.55;1733931;82;25941;-66
2021/09/21 04:36:26;;;;;;;4.78;2.60;;;;;;;8.93;65.30;101570.50;1714239;82;25820;-63
2021/09/21 04:38:53;;;;;;;7.78;2.75;;;;;;;8.99;65.22;101570.56;1739826;82;27524;-62
2021/09/21 04:41:20;;;;;;;7.05;2.55;;;;;;;9.08;65.33;101575.30;1727752;82;25845;-62
2021/09/21 04:43:47;;;;;;;7.00;2.75;;;;;;;9.18;65.18;101578.68;1732345;82;25844;-63
2021/09/21 04:46:14;;;;;;;6.85;2.30;;;;;;;9.22;64.84;101579.70;1753285;80;26185;-63
2021/09/21 04:48:41;;;;;;;3.85;2.52;;;;;;;9.29;64.91;101579.27;1767303;80;26450;-64
2021/09/21 04:51:08;;;;;;;4.65;2.33;;;;;;;9.31;64.57;101579.52;1728521;82;27577;-63
2021/09/21 04:53:35;;;;;;;5.97;2.80;;;;;;;9.24;64.23;101574.22;1698838;83;25889;-62
2021/09/21 04:56:03;;;;;;;3.83;2.10;;;;;;;9.27;64.35;101585.22;1732533;82;25871;-63
2021/09/21 04:58:30;;;;;;;6.65;2.60;;;;;;;9.30;64.12;101583.17;1741338;82;26073;-64
2021/09/21 05:00:59;;;;;;;5.47;1.98;;;;;;;9.31;63.84;101579.52;1743313;82;25782;-63
2021/09/21 05:03:27;;;;;;;3.85;2.05;;;;;;;9.30;63.41;101582.33;1709955;82;26505;-62
2021/09/21 05:05:55;;;;;;;3.98;2.20;;;;;;;9.30;63.39;101587.70;1734327;82;25805;-62
2021/09/21 05:08:21;;;;;;;3.87;1.75;;;;;;;9.35;63.40;101592.25;1734452;82;25909;-64
2021/09/21 05:10:49;;;;;;;2.98;2.10;;;;;;;9.39;63.11;101594.61;1713786;82;26131;-62
2021/09/21 05:13:16;;;;;;;4.05;1.75;;;;;;;9.40;63.05;101592.30;1737411;82;25890;-64
2021/09/21 05:15:44;;;;;;;3.27;1.72;;;;;;;9.46;63.09;101597.73;1744543;82;27493;-62
2021/09/21 05:18:11;;;;;;;16.35;2.30;;;;;;;9.54;63.20;101598.04;1760866;81;25779;-62
2021/09/21 05:20:38;;;;;;;13.03;2.35;;;;;;;9.64;62.32;101598.73;1768443;81;25841;-67
2021/09/21 05:23:05;;;;;;;8.68;2.05;;;;;;;9.66;62.15;101600.83;1768381;79;26075;-63
2021/09/21 05:25:32;;;;;;;11.08;4.75;;;;;;;9.68;61.90;101603.77;1760017;81;25959;-64
2021/09/21 05:27:58;;;;;;;4.45;2.65;;;;;;;9.77;61.64;101610.80;1755739;81;27480;-64
2021/09/21 05:30:26;;;;;;;4.65;2.72;;;;;;;9.81;61.76;101609.62;1742094;80;25850;-64
2021/09/21 05:32:53;;;;;;;5.37;2.80;;;;;;;9.87;61.28;101615.38;1741714;80;25729;-63
2021/09/21 05:35:20;;;;;;;3.55;2.55;;;;;;;9.92;61.27;101606.14;1750526;80;27051;-62
2021/09/21 05:37:47;;;;;;;5.53;2.98;;;;;;;9.98;60.92;101613.28;1768848;79;26516;-65
2021/09/21 05:40:17;;;;;;;5.40;3.27;;;;;;;10.02;60.89;101614.77;1729500;81;27471;-63
2021/09/21 05:42:46;;;;;;;8.58;2.65;;;;;;;10.06;60.68;101619.42;1735695;82;25817;-63
2021/09/21 05:45:14;;;;;;;6.03;3.20;;;;;;;10.10;60.82;101616.02;1731902;82;25879;-63
2021/09/21 05:47:43;;;;;;;8.03;2.87;;;;;;;10.17;60.57;101612.78;1733949;80;26046;-64
2021/09/21 05:50:12;;;;;;;6.03;2.42;;;;;;;10.23;60.10;101620.02;1737174;80;25813;-64
2021/09/21 05:52:39;;;;;;;5.53;2.60;;;;;;;10.25;59.93;101619.42;1743501;80;27432;-63
2021/09/21 05:55:08;;;;;;;9.25;2.87;;;;;;;10.26;59.79;101622.48;1752926;80;25753;-64
2021/09/21 05:57:35;;;;;;;6.40;2.58;;;;;;;10.24;59.85;101627.11;1744386;80;25942;-61
2021/09/21 06:00:07;;;;;;;5.37;2.40;;;;;;;10.24;59.98;101627.11;1739585;80;26744;-63
2021/09/21 06:02:35;;;;;;;9.33;2.42;;;;;;;10.26;59.97;101626.05;1747740;80;26026;-64
2021/09/21 06:05:03;;;;;;;5.25;2.25;;;;;;;10.24;60.03;101625.30;1738211;80;28236;-64
2021/09/21 06:07:30;;;;;;;13.13;2.90;;;;;;;10.28;60.43;101627.27;1748298;80;25789;-63
2021/09/21 06:09:57;;;;;;;6.05;2.00;;;;;;;10.30;59.57;101630.22;1734139;82;25885;-66
2021/09/21 06:12:24;;;;;;;5.10;2.27;;;;;;;10.33;58.58;101638.53;1761428;80;26119;-63
2021/09/21 06:15:19;;;;;;;4.33;2.35;;;;;;;10.39;59.05;101630.06;1710305;81;25819;-67
2021/09/21 06:18:01;;;;;;;4.15;1.98;;;;;;;10.49;58.45;101630.23;1676551;82;26449;-69
2021/09/21 06:20:36;;;;;;;2.20;1.65;;;;;;;10.50;57.66;101645.41;1678419;82;26432;-64
2021/09/21 06:23:03;;;;;;;7.33;2.30;;;;;;;10.60;58.29;101641.05;1674685;85;25719;-62
2021/09/21 06:25:30;;;;;;;7.92;1.98;;;;;;;10.75;57.93;101639.52;1707392;82;26809;-62
2021/09/21 06:27:57;;;;;;;6.65;2.00;;;;;;;10.92;58.03;101639.59;1707094;84;25781;-63
2021/09/21 06:30:24;;;;;;;9.35;2.02;;;;;;;11.01;57.07;101638.89;1707077;82;27473;-63
2021/09/21 06:32:50;;;;;;;5.90;2.25;;;;;;;11.04;57.01;101627.02;1708951;82;26439;-63
2021/09/21 06:35:18;;;;;;;9.20;1.80;;;;;;;11.10;56.74;101635.48;1712623;83;25760;-63
2021/09/21 06:37:45;;;;;;;11.40;2.55;;;;;;;11.14;57.17;101636.11;1707094;83;26796;-62
2021/09/21 06:40:12;;;;;;;9.75;2.30;;;;;;;11.18;56.53;101638.91;1695267;84;25818;-62
2021/09/21 06:42:42;;;;;;;11.90;1.70;;;;;;;11.25;56.47;101640.14;1705150;83;28696;-63
2021/09/21 06:45:15;;;;;;;9.25;2.35;;;;;;;11.30;55.09;101640.29;1697138;84;25838;-63
2021/09/21 06:47:43;;;;;;;5.50;2.02;;;;;;;11.37;55.13;101641.52;1701373;84;25796;-63
2021/09/21 06:50:13;;;;;;;9.05;2.25;;;;;;;11.38;54.91;101648.16;1699394;83;26947;-64
2021/09/21 06:52:39;;;;;;;2.37;1.60;;;;;;;11.36;54.39;101654.62;1707120;83;25930;-63
2021/09/21 06:55:08;;;;;;;4.12;2.20;;;;;;;11.34;54.66;101648.02;1707953;83;27464;-64
2021/09/21 06:57:37;;;;;;;5.87;1.98;;;;;;;11.43;54.32;101654.50;1707128;84;25716;-64
2021/09/21 07:00:09;;;;;;;9.68;2.05;;;;;;;11.39;54.22;101648.50;1692433;83;25877;-62
2021/09/21 07:02:37;;;;;;;4.72;2.20;;;;;;;11.41;54.36;101649.75;1685126;83;26735;-64
2021/09/21 07:05:06;;;;;;;2.60;1.87;;;;;;;11.46;54.42;101648.05;1700149;84;25857;-63
2021/09/21 07:07:32;;;;;;;5.28;2.02;;;;;;;11.48;54.33;101652.33;1694756;84;27433;-63
2021/09/21 07:09:59;;;;;;;2.67;1.47;;;;;;;11.57;54.23;101654.77;1698857;84;26523;-63
2021/09/21 07:12:26;;;;;;;6.55;1.80;;;;;;;11.66;54.46;101656.73;1699979;83;25742;-64
2021/09/21 07:14:53;;;;;;;4.40;2.37;;;;;;;11.84;53.69;101657.13;1718227;82;26123;-63
2021/09/21 07:17:20;;;;;;;7.12;2.10;;;;;;;11.95;53.70;101659.45;1734606;82;25814;-65
2021/09/21 07:19:47;;;;;;;3.62;1.80;;;;;;;11.84;52.46;101661.17;1734088;82;29574;-64
2021/09/21 07:22:14;;;;;;;3.02;1.92;;;;;;;11.86;52.85;101660.56;1735273;82;25743;-62
2021/09/21 07:24:40;;;;;;;10.23;2.15;;;;;;;11.94;53.01;101661.27;1742257;80;26503;-63
2021/09/21 07:27:07;;;;;;;7.50;2.08;;;;;;;12.09;52.56;101666.46;1734616;82;26046;-62
2021/09/21 07:29:34;;;;;;;10.05;2.77;;;;;;;12.16;52.34;101665.82;1734455;82;26127;-63
2021/09/21 07:32:06;;;;;;;9.15;2.33;;;;;;;11.98;52.34;101639.87;1739974;82;26680;-64
2021/09/21 07:34:33;;;;;;;4.05;2.33;;;;;;;12.25;52.62;101679.54;1734393;82;25807;-63
2021/09/21 07:37:00;;;;;;;4.97;2.37;;;;;;;12.39;52.23;101681.11;1734522;82;25691;-64
2021/09/21 07:39:27;;;;;;;2.75;2.05;;;;;;;12.48;51.93;101671.79;1734307;82;26522;-63
2021/09/21 07:41:54;;;;;;;5.72;2.80;;;;;;;12.49;51.81;101666.76;1736922;82;25796;-63
2021/09/21 07:44:21;;;;;;;7.87;2.92;;;;;;;12.50;51.84;101661.73;1737345;80;27871;-65
2021/09/21 07:46:49;;;;;;;8.15;2.77;;;;;;;12.63;51.11;101665.62;1733642;80;25794;-63
2021/09/21 07:49:16;;;;;;;8.95;2.62;;;;;;;12.65;51.36;101664.97;1738155;82;25746;-63
2021/09/21 07:51:44;;;;;;;7.78;2.40;;;;;;;12.78;51.31;101659.40;1746984;80;26102;-63
2021/09/21 07:54:10;;;;;;;8.53;3.22;;;;;;;12.94;50.90;101664.37;1738335;80;25723;-63
2021/09/21 07:56:38;;;;;;;6.83;2.83;;;;;;;13.01;51.09;101666.06;1747223;80;27475;-64
2021/09/21 07:59:05;;;;;;;6.37;2.70;;;;;;;13.13;50.29;101666.35;1722408;82;25808;-63
2021/09/21 08:01:40;;;;;;;3.67;2.98;;;;;;;13.19;50.18;101666.33;1731222;82;26231;-64
2021/09/21 08:04:06;;;;;;;12.23;4.00;;;;;;;13.35;49.27;101662.33;1742099;82;26501;-64
2021/09/21 08:06:33;;;;;;;9.15;3.00;;;;;;;13.30;49.16;101671.67;1741756;82;25926;-64
2021/09/21 08:09:03;;;;;;;7.55;3.40;;;;;;;13.25;49.33;101667.65;1740785;82;27446;-64
2021/09/21 08:11:31;;;;;;;5.50;3.30;;;;;;;13.18;49.43;101677.27;1734138;82;25790;-62
2021/09/21 08:14:03;;;;;;;6.58;3.55;;;;;;;13.27;49.95;101666.52;1732454;82;26025;-63
2021/09/21 08:16:27;;;;;;;5.65;3.45;;;;;;;13.48;49.97;101671.61;1725217;82;26762;-63
2021/09/21 08:18:54;;;;;;;6.35;3.50;;;;;;;13.60;48.84;101671.40;1726238;83;25772;-63
2021/09/21 08:21:21;;;;;;;5.42;3.40;;;;;;;13.66;48.40;101665.08;1720603;82;27848;-62
2021/09/21 08:23:47;;;;;;;6.05;3.33;;;;;;;13.46;47.79;101669.02;1742562;82;25896;-62
2021/09/21 08:26:14;;;;;;;5.15;3.25;;;;;;;13.46;48.09;101675.30;1741276;80;26113;-62
2021/09/21 08:28:48;;;;;;;6.75;3.50;;;;;;;13.49;48.06;101659.81;1735839;80;26545;-64
2021/09/21 08:31:15;;;;;;;5.72;3.30;;;;;;;13.36;48.08;101670.29;1736635;80;25806;-64
2021/09/21 08:33:42;;;;;;;5.90;3.12;;;;;;;13.33;48.84;101681.36;1739753;80;27663;-63
2021/09/21 08:36:09;;;;;;;6.78;3.00;;;;;;;13.26;48.49;101677.47;1732109;81;25822;-62
2021/09/21 08:38:36;;;;;;;3.60;2.98;;;;;;;13.13;47.69;101669.05;1752211;80;25823;-63
2021/09/21 08:41:03;;;;;;;5.22;3.20;;;;;;;13.21;48.53;101662.16;1747121;80;27084;-63
2021/09/21 08:43:30;;;;;;;6.30;3.50;;;;;;;13.37;48.37;101665.25;1732788;82;25970;-63
2021/09/21 08:45:58;;;;;;;4.80;3.22;;;;;;;13.63;47.66;101652.69;1747680;80;27470;-64
2021/09/21 08:48:26;;;;;;;8.38;2.92;;;;;;;13.73;46.62;101661.71;1753977;80;26042;-63
2021/09/21 08:50:52;;;;;;;4.80;2.95;;;;;;;13.78;47.21;101668.06;1702198;83;25764;-64
2021/09/21 08:53:20;;;;;;;6.45;3.02;;;;;;;13.85;45.90;101677.34;1701897;82;26488;-63
2021/09/21 08:55:46;;;;;;;4.42;3.50;;;;;;;13.93;45.88;101660.45;1703050;83;25844;-63
2021/09/21 08:58:14;;;;;;;9.50;3.27;;;;;;;14.19;46.67;101657.25;1705439;80;28211;-65
2021/09/21 09:00:41;;;;;;;7.97;3.22;;;;;;;14.70;45.96;101648.09;1728730;82;25823;-64
2021/09/21 09:03:12;;;;;;;13.50;4.72;;;;;;;15.16;44.09;101645.63;1742347;82;25723;-62
2021/09/21 09:05:53;;;;;;;3.90;2.77;;;;;;;15.42;43.55;101661.78;1742753;80;26089;-64
2021/09/21 09:08:36;;;;;;;6.87;3.75;;;;;;;15.77;42.70;101649.40;1737081;80;25814;-64
2021/09/21 09:11:19;;;;;;;5.03;2.72;;;;;;;16.19;42.02;101653.00;1726107;83;27487;-66
2021/09/21 09:13:55;;;;;;;8.58;2.37;;;;;;;16.43;40.51;101644.80;1726680;83;25808;-63
2021/09/21 09:16:27;;;;;;;5.67;2.62;;;;;;;16.86;40.24;101639.09;1707931;82;25777;-66
2021/09/21 09:19:08;;;;;;;11.30;2.27;;;;;;;17.50;38.11;101638.92;1708316;83;26206;-63
2021/09/21 09:21:41;;;;;;;6.60;2.47;;;;;;;18.32;36.74;101630.80;1708210;83;25835;-66
2021/09/21 09:24:09;;;;;;;4.87;2.42;;;;;;;18.81;36.59;101634.59;1712409;83;27818;-62
2021/09/21 09:26:40;;;;;;;4.47;2.42;;;;;;;19.54;35.86;101630.11;1711845;83;25792;-62
2021/09/21 09:29:14;;;;;;;6.85;2.37;;;;;;;19.19;35.27;101635.80;1712125;82;26546;-62
2021/09/21 09:31:46;;;;;;;6.30;2.67;;;;;;;19.80;34.37;101624.91;1705389;82;26521;-62
2021/09/21 09:34:25;;;;;;;2.15;1.87;;;;;;;19.96;34.39;101623.50;1698519;84;26532;-62
2021/09/21 09:37:02;;;;;;;3.05;2.30;;;;;;;20.24;32.32;101626.28;1697313;84;28173;-63
2021/09/21 09:39:31;;;;;;;7.75;2.67;;;;;;;20.82;32.31;101618.56;1698940;83;25796;-63
2021/09/21 09:42:00;;;;;;;3.70;2.37;;;;;;;21.54;31.39;101612.20;1697936;84;26451;-64
2021/09/21 09:44:31;;;;;;;2.00;1.40;;;;;;;22.03;29.32;101596.58;1696849;83;26060;-64
2021/09/21 09:47:07;;;;;;;12.05;4.90;;;;;;;22.27;28.23;101592.31;1704805;84;25829;-69
2021/09/21 09:49:38;;;;;;;5.03;1.85;;;;;;;21.45;30.00;101597.78;1700880;84;27452;-65
2021/09/21 09:52:18;;;;;;;4.80;1.37;;;;;;;21.45;30.71;101603.75;1697531;84;25725;-64
2021/09/21 09:54:48;;;;;;;6.65;1.57;;;;;;;21.22;30.37;101604.16;1697577;83;25745;-65
2021/09/21 09:57:18;;;;;;;5.83;1.80;;;;;;;20.99;29.63;101599.27;1697593;83;26074;-65
2021/09/21 09:59:44;;;;;;;3.95;1.40;;;;;;;20.20;30.56;101600.34;1698520;84;25476;-63
2021/09/21 10:02:18;;;;;;;2.52;1.70;;;;;;;19.80;31.82;101597.11;1697716;84;27599;-66
2021/09/21 10:04:57;;;;;;;4.45;2.37;;;;;;;19.65;32.26;101616.59;1692328;83;26256;-64
2021/09/21 10:07:23;;;;;;;12.73;1.77;;;;;;;19.54;31.32;101606.39;1697820;83;25844;-62
2021/09/21 10:09:52;;;;;;;6.37;1.70;;;;;;;19.19;31.99;101607.69;1698248;83;26072;-62
2021/09/21 10:12:20;;;;;;;3.52;1.70;;;;;;;19.18;32.03;101608.20;1697588;83;25760;-64
2021/09/21 10:14:47;;;;;;;4.05;1.60;;;;;;;19.52;30.60;101607.10;1698051;83;27090;-62
2021/09/21 10:17:19;;;;;;;4.12;1.92;;;;;;;20.47;30.93;101606.66;1697544;83;26061;-62
2021/09/21 10:19:52;;;;;;;8.30;1.60;;;;;;;21.41;29.48;101596.44;1704430;82;25749;-64
2021/09/21 10:22:31;;;;;;;2.37;1.12;;;;;;;22.20;28.89;101614.98;1697013;82;26029;-63
2021/09/21 10:25:08;;;;;;;5.53;1.52;;;;;;;22.77;28.13;101606.95;1675827;84;25837;-63
2021/09/21 10:27:43;;;;;;;3.80;1.00;;;;;;;22.99;25.52;101602.83;1675879;85;27474;-65
2021/09/21 10:30:15;;;;;;;6.50;1.50;;;;;;;23.01;26.85;101594.39;1693626;83;25773;-64
2021/09/21 10:32:56;;;;;;;7.30;1.60;;;;;;;23.43;26.24;101596.20;1672540;83;25833;-66
2021/09/21 10:35:32;;;;;;;7.78;1.45;;;;;;;22.83;25.88;101606.16;1695323;82;26307;-64
2021/09/21 10:38:12;;;;;;;6.45;1.77;;;;;;;22.00;26.38;101606.53;1686739;84;25481;-64
2021/09/21 10:40:45;;;;;;;2.15;1.32;;;;;;;21.95;26.92;101609.02;1695393;84;27462;-63
2021/09/21 10:43:33;;;;;;;4.45;1.32;;;;;;;22.97;25.70;101603.55;1699730;83;25828;-66
2021/09/21 10:46:16;;;;;;;2.83;1.55;;;;;;;23.78;25.19;101603.55;1697713;83;25488;-65
2021/09/21 10:48:48;;;;;;;3.40;1.55;;;;;;;24.13;22.42;101608.17;1690479;83;26066;-65
2021/09/21 10:51:23;;;;;;;3.37;1.50;;;;;;;23.89;23.21;101598.85;1701612;82;25784;-66
2021/09/21 10:54:14;;;;;;;2.85;1.40;;;;;;;24.16;23.24;101575.61;1702108;83;27051;-65
2021/09/21 10:56:43;;;;;;;15.00;1.63;;;;;;;24.87;22.56;101601.44;1710659;83;25838;-62
2021/09/21 10:59:19;;;;;;;3.70;1.60;;;;;;;25.22;21.88;101602.58;1715255;83;25688;-63
2021/09/21 11:01:48;;;;;;;2.25;1.40;;;;;;;24.59;21.44;101604.69;1713761;83;26141;-64
2021/09/21 11:04:15;;;;;;;8.28;2.00;;;;;;;25.06;22.46;101613.49;1712764;83;25503;-64
2021/09/21 11:06:44;;;;;;;12.95;1.90;;;;;;;25.55;22.01;101595.66;1709990;83;28086;-63
2021/09/21 11:09:11;;;;;;;6.85;1.67;;;;;;;26.14;21.40;101601.16;1710008;83;25828;-63
2021/09/21 11:11:38;;;;;;;4.70;1.27;;;;;;;26.36;20.66;101595.33;1707952;82;25496;-64
2021/09/21 11:14:06;;;;;;;2.50;1.27;;;;;;;25.98;21.55;101601.12;1699861;82;26028;-63
2021/09/21 11:16:32;;;;;;;1.82;1.40;;;;;;;25.01;21.32;101596.27;1700011;84;25974;-65
2021/09/21 11:19:05;;;;;;;3.35;1.60;;;;;;;23.81;21.91;101607.27;1708334;84;28276;-66
2021/09/21 11:21:30;;;;;;;1.37;1.12;;;;;;;22.93;23.45;101611.33;1708249;82;25793;-64
2021/09/21 11:23:57;;;;;;;5.35;1.70;;;;;;;23.25;24.04;101603.56;1704584;82;25803;-66
2021/09/21 11:26:24;;;;;;;2.05;1.85;;;;;;;23.42;23.48;101603.25;1683980;83;26744;-63
2021/09/21 11:28:51;;;;;;;3.12;1.80;;;;;;;23.35;23.55;101597.73;1699174;82;26690;-64
2021/09/21 11:31:19;;;;;;;3.35;1.47;;;;;;;23.56;23.48;101598.68;1686765;82;28209;-63
2021/09/21 11:33:48;;;;;;;4.35;1.50;;;;;;;23.33;23.69;101603.95;1701787;83;25860;-62
2021/09/21 11:36:17;;;;;;;7.25;1.32;;;;;;;23.16;22.91;101610.76;1707457;82;25487;-63
2021/09/21 11:38:49;;;;;;;7.83;1.45;;;;;;;22.54;23.21;101598.09;1708053;84;26102;-64
2021/09/21 11:41:18;;;;;;;3.17;1.40;;;;;;;22.33;24.17;101599.20;1729225;81;25805;-64
2021/09/21 11:43:48;;;;;;;2.05;1.30;;;;;;;22.59;24.27;101597.80;1723245;82;28110;-64
2021/09/21 11:46:14;;;;;;;5.17;1.65;;;;;;;22.27;24.56;101608.22;1734405;81;25737;-63
2021/09/21 11:48:48;;;;;;;4.78;1.42;;;;;;;22.05;23.92;101595.84;1757151;81;25502;-69
2021/09/21 11:51:21;;;;;;;2.85;1.50;;;;;;;22.03;24.27;101586.98;1734474;81;26439;-65
2021/09/21 11:53:50;;;;;;;2.83;1.40;;;;;;;22.15;24.46;101593.31;1713995;83;25680;-66
2021/09/21 11:56:21;;;;;;;4.65;2.00;;;;;;;22.22;23.98;101588.78;1714115;83;27142;-66
2021/09/21 11:58:59;;;;;;;2.35;1.30;;;;;;;21.89;24.81;101595.56;1715974;81;26042;-65
2021/09/21 12:01:28;;;;;;;3.83;1.70;;;;;;;21.81;25.12;101603.88;1729447;81;25782;-64